createdAt,value
2018-12-09T00:00:36.593Z,91.22
2018-12-09T00:01:36.607Z,90.70
2018-12-09T00:02:36.578Z,90.95
2018-12-09T00:03:36.568Z,90.74
2018-12-09T00:04:36.553Z,92.08
2018-12-09T00:05:36.546Z,92.46
2018-12-09T00:06:36.555Z,92.80
2018-12-09T00:07:36.515Z,93.53
2018-12-09T00:08:36.512Z,94.25
2018-12-09T00:09:36.492Z,94.19
2018-12-09T00:10:36.486Z,94.56
2018-12-09T00:11:36.512Z,94.04
2018-12-09T00:12:37.108Z,94.15
2018-12-09T00:13:36.449Z,93.32
2018-12-09T00:14:36.437Z,93.98
2018-12-09T00:15:36.436Z,94.35
2018-12-09T00:16:36.439Z,93.53
2018-12-09T00:17:36.407Z,93.53
2018-12-09T00:18:36.399Z,93.57
2018-12-09T00:19:36.382Z,93.43
2018-12-09T00:20:36.379Z,93.63
2018-12-09T00:21:36.378Z,93.73
2018-12-09T00:22:36.354Z,93.43
2018-12-09T00:23:36.349Z,94.15
2018-12-09T00:24:36.330Z,93.84
2018-12-09T00:25:36.315Z,93.12
2018-12-09T00:26:36.331Z,93.43
2018-12-09T00:27:36.298Z,93.32
2018-12-09T00:28:36.288Z,92.70
2018-12-09T00:29:36.278Z,93.53
2018-12-09T00:30:36.260Z,93.88
2018-12-09T00:31:36.308Z,93.43
2018-12-09T00:32:36.246Z,93.73
2018-12-09T00:33:36.233Z,93.32
2018-12-09T00:34:36.219Z,93.32
2018-12-09T00:35:36.207Z,93.84
2018-12-09T00:36:36.222Z,94.04
2018-12-09T00:37:36.191Z,94.04
2018-12-09T00:38:36.174Z,95.28
2018-12-09T00:39:36.165Z,96.31
2018-12-09T00:40:36.162Z,96.15
2018-12-09T00:41:36.139Z,96.26
2018-12-09T00:42:43.297Z,96.15
2018-12-09T00:43:37.118Z,96.36
2018-12-09T00:44:38.045Z,95.84
2018-12-09T00:45:36.108Z,96.15
2018-12-09T00:46:36.089Z,96.88
2018-12-09T00:47:36.091Z,96.56
2018-12-09T00:48:36.063Z,96.77
2018-12-09T00:49:36.054Z,96.47
2018-12-09T00:50:36.042Z,96.77
2018-12-09T00:51:36.031Z,96.56
2018-12-09T00:52:36.039Z,97.39
2018-12-09T00:53:36.008Z,97.19
2018-12-09T00:54:36.016Z,96.77
2018-12-09T00:55:35.996Z,97.29
2018-12-09T00:56:35.982Z,97.91
2018-12-09T00:57:35.983Z,96.56
2018-12-09T00:58:35.963Z,97.04
2018-12-09T00:59:35.946Z,97.14
2018-12-09T01:00:35.931Z,96.83
2018-12-09T01:01:35.923Z,97.29
2018-12-09T01:02:35.931Z,96.62
2018-12-09T01:03:35.901Z,96.73
2018-12-09T01:04:35.883Z,97.25
2018-12-09T01:05:35.880Z,97.34
2018-12-09T01:06:35.868Z,97.25
2018-12-09T01:07:35.875Z,97.34
2018-12-09T01:08:35.847Z,97.76
2018-12-09T01:09:35.830Z,98.07
2018-12-09T01:10:35.822Z,97.55
2018-12-09T01:11:35.817Z,98.07
2018-12-09T01:12:35.819Z,98.38
2018-12-09T01:13:35.793Z,98.18
2018-12-09T01:14:35.779Z,97.66
2018-12-09T01:15:35.765Z,97.97
2018-12-09T01:16:35.757Z,96.62
2018-12-09T01:17:35.763Z,97.04
2018-12-09T01:18:35.742Z,97.34
2018-12-09T01:19:35.719Z,97.09
2018-12-09T01:20:35.718Z,98.18
2018-12-09T01:21:35.703Z,98.02
2018-12-09T01:22:35.707Z,98.07
2018-12-09T01:23:35.706Z,96.69
2018-12-09T01:24:35.665Z,97.72
2018-12-09T01:25:35.654Z,97.82
2018-12-09T01:26:35.643Z,97.61
2018-12-09T01:27:35.658Z,97.82
2018-12-09T01:28:35.630Z,98.02
2018-12-09T01:29:35.607Z,97.82
2018-12-09T01:30:35.605Z,98.33
2018-12-09T01:31:35.596Z,98.18
2018-12-09T01:32:35.586Z,98.96
2018-12-09T01:33:35.588Z,99.52
2018-12-09T01:34:35.557Z,98.85
2018-12-09T01:35:35.552Z,98.75
2018-12-09T01:36:35.536Z,99.10
2018-12-09T01:37:35.523Z,99.10
2018-12-09T01:38:35.531Z,99.21
2018-12-09T01:39:35.511Z,98.85
2018-12-09T01:40:35.487Z,99.52
2018-12-09T01:41:35.478Z,98.96
2018-12-09T01:42:35.472Z,99.00
2018-12-09T01:43:35.475Z,98.85
2018-12-09T01:44:35.451Z,98.75
2018-12-09T01:45:35.439Z,98.96
2018-12-09T01:46:35.421Z,99.10
2018-12-09T01:47:35.417Z,98.65
2018-12-09T01:48:35.441Z,98.96
2018-12-09T01:49:35.395Z,97.82
2018-12-09T01:50:35.377Z,97.82
2018-12-09T01:51:35.369Z,98.44
2018-12-09T01:52:35.361Z,98.96
2018-12-09T01:53:35.371Z,98.96
2018-12-09T01:54:35.351Z,98.85
2018-12-09T01:55:35.324Z,98.85
2018-12-09T01:56:35.317Z,98.44
2018-12-09T01:57:35.299Z,98.85
2018-12-09T01:58:35.319Z,98.75
2018-12-09T01:59:35.278Z,98.85
2018-12-09T02:00:35.265Z,98.44
2018-12-09T02:01:35.264Z,98.44
2018-12-09T02:02:35.244Z,97.92
2018-12-09T02:03:35.235Z,98.02
2018-12-09T02:04:35.237Z,97.61
2018-12-09T02:05:35.265Z,98.02
2018-12-09T02:06:35.200Z,98.33
2018-12-09T02:07:35.193Z,98.65
2018-12-09T02:08:35.178Z,98.02
2018-12-09T02:09:35.185Z,97.72
2018-12-09T02:10:35.156Z,98.13
2018-12-09T02:11:35.147Z,97.61
2018-12-09T02:12:35.133Z,98.13
2018-12-09T02:13:35.121Z,98.13
2018-12-09T02:14:35.129Z,97.51
2018-12-09T02:15:35.099Z,97.92
2018-12-09T02:16:35.093Z,97.61
2018-12-09T02:17:35.084Z,97.61
2018-12-09T02:18:35.147Z,97.82
2018-12-09T02:19:35.082Z,97.26
2018-12-09T02:20:35.043Z,97.98
2018-12-09T02:21:35.031Z,97.77
2018-12-09T02:22:35.027Z,97.88
2018-12-09T02:23:35.014Z,97.51
2018-12-09T02:24:35.015Z,97.88
2018-12-09T02:25:34.991Z,98.19
2018-12-09T02:26:34.982Z,97.77
2018-12-09T02:27:34.968Z,97.05
2018-12-09T02:28:34.959Z,97.16
2018-12-09T02:29:34.961Z,97.16
2018-12-09T02:30:34.939Z,97.05
2018-12-09T02:31:34.923Z,97.98
2018-12-09T02:32:34.913Z,96.84
2018-12-09T02:33:34.900Z,97.26
2018-12-09T02:34:34.910Z,96.53
2018-12-09T02:35:34.880Z,97.98
2018-12-09T02:36:34.867Z,97.98
2018-12-09T02:37:34.857Z,97.98
2018-12-09T02:38:34.853Z,96.64
2018-12-09T02:39:34.850Z,96.84
2018-12-09T02:40:34.824Z,97.26
2018-12-09T02:41:34.817Z,97.56
2018-12-09T02:42:34.800Z,97.16
2018-12-09T02:43:34.788Z,96.84
2018-12-09T02:44:34.800Z,97.11
2018-12-09T02:45:34.768Z,96.59
2018-12-09T02:46:34.755Z,96.59
2018-12-09T02:47:34.753Z,96.84
2018-12-09T02:48:34.736Z,96.64
2018-12-09T02:49:34.737Z,96.84
2018-12-09T02:50:34.713Z,97.21
2018-12-09T02:51:34.706Z,97.26
2018-12-09T02:52:34.693Z,96.80
2018-12-09T02:53:34.860Z,97.11
2018-12-09T02:54:34.689Z,97.01
2018-12-09T02:55:34.657Z,96.59
2018-12-09T02:56:34.650Z,96.80
2018-12-09T02:57:34.640Z,96.80
2018-12-09T02:58:34.638Z,97.21
2018-12-09T02:59:34.632Z,96.39
2018-12-09T03:00:34.602Z,96.59
2018-12-09T03:01:34.612Z,96.28
2018-12-09T03:02:34.587Z,96.91
2018-12-09T03:03:34.568Z,96.91
2018-12-09T03:04:34.577Z,96.28
2018-12-09T03:05:34.545Z,95.98
2018-12-09T03:06:34.541Z,95.36
2018-12-09T03:07:34.535Z,95.46
2018-12-09T03:08:34.515Z,95.52
2018-12-09T03:09:34.518Z,95.83
2018-12-09T03:10:34.489Z,95.83
2018-12-09T03:11:34.480Z,95.21
2018-12-09T03:12:34.478Z,95.52
2018-12-09T03:13:34.459Z,95.52
2018-12-09T03:14:34.464Z,94.90
2018-12-09T03:15:34.436Z,95.42
2018-12-09T03:16:34.445Z,95.00
2018-12-09T03:17:34.417Z,95.00
2018-12-09T03:18:34.406Z,95.21
2018-12-09T03:19:34.397Z,95.31
2018-12-09T03:20:34.404Z,94.28
2018-12-09T03:21:34.376Z,93.87
2018-12-09T03:22:34.364Z,93.98
2018-12-09T03:23:34.350Z,94.34
2018-12-09T03:24:34.336Z,94.38
2018-12-09T03:25:34.347Z,94.38
2018-12-09T03:26:34.324Z,94.49
2018-12-09T03:27:34.311Z,94.49
2018-12-09T03:28:34.294Z,94.13
2018-12-09T03:29:34.285Z,94.13
2018-12-09T03:30:34.339Z,94.13
2018-12-09T03:31:34.271Z,94.13
2018-12-09T03:32:34.258Z,93.73
2018-12-09T03:33:34.576Z,94.13
2018-12-09T03:34:34.232Z,93.62
2018-12-09T03:35:34.247Z,94.45
2018-12-09T03:36:34.204Z,94.13
2018-12-09T03:37:34.191Z,94.34
2018-12-09T03:38:34.187Z,93.73
2018-12-09T03:39:34.177Z,94.24
2018-12-09T03:40:34.179Z,93.73
2018-12-09T03:41:34.151Z,93.93
2018-12-09T03:42:34.138Z,94.03
2018-12-09T03:43:34.125Z,94.55
2018-12-09T03:44:34.112Z,94.55
2018-12-09T03:45:34.123Z,94.96
2018-12-09T03:46:34.103Z,94.70
2018-12-09T03:47:34.105Z,95.52
2018-12-09T03:48:34.075Z,95.37
2018-12-09T03:49:34.067Z,95.62
2018-12-09T03:50:34.071Z,96.03
2018-12-09T03:51:34.040Z,96.86
2018-12-09T03:52:34.033Z,96.86
2018-12-09T03:53:34.015Z,96.55
2018-12-09T03:54:34.005Z,95.93
2018-12-09T03:55:34.022Z,96.55
2018-12-09T03:56:33.993Z,96.24
2018-12-09T03:57:33.984Z,96.66
2018-12-09T03:58:33.965Z,96.75
2018-12-09T03:59:33.948Z,96.24
2018-12-09T04:00:33.957Z,96.45
2018-12-09T04:01:33.927Z,96.96
2018-12-09T04:02:33.915Z,97.48
2018-12-09T04:03:33.916Z,97.89
2018-12-09T04:04:33.898Z,98.41
2018-12-09T04:05:33.903Z,98.82
2018-12-09T04:06:33.875Z,99.13
2018-12-09T04:07:33.864Z,99.13
2018-12-09T04:08:33.851Z,99.27
2018-12-09T04:09:33.852Z,99.48
2018-12-09T04:10:33.843Z,99.58
2018-12-09T04:11:33.818Z,99.58
2018-12-09T04:12:33.809Z,99.38
2018-12-09T04:13:33.797Z,99.13
2018-12-09T04:14:33.797Z,98.86
2018-12-09T04:15:33.799Z,98.92
2018-12-09T04:16:33.779Z,99.17
2018-12-09T04:17:33.755Z,97.99
2018-12-09T04:18:33.764Z,98.92
2018-12-09T04:19:33.733Z,98.10
2018-12-09T04:20:33.746Z,98.10
2018-12-09T04:21:33.717Z,97.17
2018-12-09T04:22:33.698Z,96.86
2018-12-09T04:23:33.690Z,97.48
2018-12-09T04:24:33.673Z,97.48
2018-12-09T04:25:33.694Z,97.68
2018-12-09T04:26:33.649Z,97.43
2018-12-09T04:27:33.644Z,97.74
2018-12-09T04:28:33.631Z,97.78
2018-12-09T04:29:33.621Z,95.37
2018-12-09T04:30:33.609Z,96.71
2018-12-09T04:31:33.617Z,96.81
2018-12-09T04:32:33.587Z,97.23
2018-12-09T04:33:33.590Z,96.92
2018-12-09T04:34:33.579Z,96.71
2018-12-09T04:35:33.554Z,95.78
2018-12-09T04:36:33.541Z,95.48
2018-12-09T04:37:33.532Z,95.68
2018-12-09T04:38:33.537Z,96.20
2018-12-09T04:39:33.510Z,95.84
2018-12-09T04:40:33.508Z,95.06
2018-12-09T04:41:33.501Z,93.79
2018-12-09T04:42:33.480Z,95.95
2018-12-09T04:43:33.471Z,95.43
2018-12-09T04:44:33.471Z,94.30
2018-12-09T04:45:33.446Z,95.02
2018-12-09T04:46:33.452Z,94.81
2018-12-09T04:47:33.423Z,93.06
2018-12-09T04:48:33.417Z,93.37
2018-12-09T04:49:33.396Z,94.09
2018-12-09T04:50:33.387Z,93.88
2018-12-09T04:51:33.489Z,93.27
2018-12-09T04:52:33.361Z,93.27
2018-12-09T04:53:33.352Z,93.27
2018-12-09T04:54:33.355Z,91.52
2018-12-09T04:55:33.338Z,91.58
2018-12-09T04:56:33.336Z,92.30
2018-12-09T04:57:33.305Z,92.10
2018-12-09T04:58:33.298Z,91.38
2018-12-09T04:59:33.285Z,92.40
2018-12-09T05:00:33.282Z,91.58
2018-12-09T05:01:33.278Z,90.96
2018-12-09T05:02:33.343Z,90.75
2018-12-09T05:03:33.242Z,90.96
2018-12-09T05:04:33.230Z,90.86
2018-12-09T05:05:33.223Z,90.96
2018-12-09T05:06:33.222Z,90.66
2018-12-09T05:07:33.201Z,90.34
2018-12-09T05:08:33.190Z,91.27
2018-12-09T05:09:33.170Z,91.17
2018-12-09T05:10:33.187Z,90.66
2018-12-09T05:11:33.172Z,90.55
2018-12-09T05:12:33.145Z,90.75
2018-12-09T05:13:33.133Z,91.06
2018-12-09T05:14:33.117Z,90.34
2018-12-09T05:15:33.108Z,89.52
2018-12-09T05:16:33.119Z,89.52
2018-12-09T05:17:33.083Z,90.34
2018-12-09T05:18:33.085Z,90.45
2018-12-09T05:19:33.065Z,88.90
2018-12-09T05:20:33.051Z,89.52
2018-12-09T05:21:33.054Z,89.73
2018-12-09T05:22:33.040Z,89.31
2018-12-09T05:23:33.015Z,88.08
2018-12-09T05:24:33.005Z,88.70
2018-12-09T05:25:33.016Z,88.90
2018-12-09T05:26:32.984Z,88.29
2018-12-09T05:27:32.973Z,88.76
2018-12-09T05:28:32.972Z,88.29
2018-12-09T05:29:32.951Z,87.26
2018-12-09T05:30:32.956Z,89.17
2018-12-09T05:31:32.923Z,89.48
2018-12-09T05:32:32.935Z,88.76
2018-12-09T05:33:32.912Z,88.70
2018-12-09T05:34:32.911Z,88.90
2018-12-09T05:35:32.886Z,87.73
2018-12-09T05:36:32.878Z,90.41
2018-12-09T05:37:32.892Z,88.86
2018-12-09T05:38:32.850Z,86.40
2018-12-09T05:39:32.842Z,87.22
2018-12-09T05:40:32.828Z,87.63
2018-12-09T05:41:32.824Z,86.70
2018-12-09T05:42:32.820Z,87.05
2018-12-09T05:43:32.799Z,87.12
2018-12-09T05:44:32.787Z,86.08
2018-12-09T05:45:32.776Z,87.12
2018-12-09T05:46:32.760Z,87.73
2018-12-09T05:47:32.778Z,88.49
2018-12-09T05:48:32.740Z,88.49
2018-12-09T05:49:32.724Z,87.67
2018-12-09T05:50:32.720Z,90.75
2018-12-09T05:51:32.702Z,89.01
2018-12-09T05:52:32.715Z,89.62
2018-12-09T05:53:32.683Z,88.80
2018-12-09T05:54:32.677Z,90.34
2018-12-09T05:55:32.664Z,90.55
2018-12-09T05:56:32.654Z,89.01
2018-12-09T05:57:32.660Z,89.73
2018-12-09T05:58:32.628Z,89.46
2018-12-09T05:59:32.622Z,88.80
2018-12-09T06:00:32.608Z,88.70
2018-12-09T06:01:32.623Z,89.31
2018-12-09T06:02:32.591Z,90.55
2018-12-09T06:03:32.573Z,90.90
2018-12-09T06:04:32.564Z,89.25
2018-12-09T06:05:32.557Z,88.84
2018-12-09T06:06:32.567Z,88.64
2018-12-09T06:07:32.528Z,90.59
2018-12-09T06:08:32.536Z,89.77
2018-12-09T06:09:32.509Z,90.03
2018-12-09T06:10:32.492Z,90.49
2018-12-09T06:11:32.481Z,89.87
2018-12-09T06:12:32.475Z,89.97
2018-12-09T06:13:32.477Z,89.31
2018-12-09T06:14:32.456Z,88.33
2018-12-09T06:15:32.440Z,87.57
2018-12-09T06:16:32.429Z,85.96
2018-12-09T06:17:32.421Z,87.57
2018-12-09T06:18:32.431Z,85.51
2018-12-09T06:19:32.411Z,84.89
2018-12-09T06:20:32.383Z,86.54
2018-12-09T06:21:32.371Z,85.82
2018-12-09T06:22:32.364Z,84.89
2018-12-09T06:23:32.375Z,85.30
2018-12-09T06:24:32.353Z,84.07
2018-12-09T06:25:32.332Z,84.38
2018-12-09T06:26:32.317Z,84.48
2018-12-09T06:27:32.308Z,83.86
2018-12-09T06:28:32.319Z,84.13
2018-12-09T06:29:32.284Z,83.86
2018-12-09T06:30:32.275Z,84.89
2018-12-09T06:31:32.261Z,87.57
2018-12-09T06:32:32.251Z,87.98
2018-12-09T06:33:32.264Z,88.43
2018-12-09T06:34:32.227Z,89.42
2018-12-09T06:35:32.221Z,91.00
2018-12-09T06:36:32.213Z,91.31
2018-12-09T06:37:32.193Z,91.11
2018-12-09T06:38:32.221Z,91.00
2018-12-09T06:39:32.184Z,91.36
2018-12-09T06:40:32.163Z,91.87
2018-12-09T06:41:32.155Z,93.73
2018-12-09T06:42:32.238Z,92.59
2018-12-09T06:43:32.149Z,91.87
2018-12-09T06:44:32.118Z,91.56
2018-12-09T06:45:32.111Z,94.13
2018-12-09T06:46:32.099Z,94.28
2018-12-09T06:47:32.086Z,95.42
2018-12-09T06:48:32.089Z,95.83
2018-12-09T06:49:32.061Z,95.31
2018-12-09T06:50:32.049Z,95.83
2018-12-09T06:51:32.147Z,96.45
2018-12-09T06:52:32.029Z,96.75
2018-12-09T06:53:32.060Z,96.86
2018-12-09T06:54:32.006Z,96.70
2018-12-09T06:55:31.998Z,94.90
2018-12-09T06:56:31.988Z,96.03
2018-12-09T06:57:31.988Z,96.86
2018-12-09T06:58:31.984Z,96.86
2018-12-09T06:59:31.954Z,96.28
2018-12-09T07:00:31.941Z,96.91
2018-12-09T07:01:31.933Z,97.21
2018-12-09T07:02:31.926Z,97.11
2018-12-09T07:03:31.932Z,97.42
2018-12-09T07:04:31.902Z,97.94
2018-12-09T07:05:31.892Z,97.63
2018-12-09T07:06:31.874Z,97.94
2018-12-09T07:07:31.878Z,97.94
2018-12-09T07:08:31.876Z,97.73
2018-12-09T07:09:31.846Z,97.73
2018-12-09T07:10:31.830Z,97.83
2018-12-09T07:11:31.817Z,98.35
2018-12-09T07:12:31.817Z,98.82
2018-12-09T07:13:31.825Z,98.97
2018-12-09T07:14:31.786Z,98.66
2018-12-09T07:15:31.775Z,98.86
2018-12-09T07:16:31.765Z,98.86
2018-12-09T07:17:31.751Z,97.94
2018-12-09T07:18:31.744Z,97.94
2018-12-09T07:19:31.746Z,97.94
2018-12-09T07:20:31.716Z,97.17
2018-12-09T07:21:31.714Z,97.89
2018-12-09T07:22:31.700Z,97.68
2018-12-09T07:23:31.696Z,97.94
2018-12-09T07:24:31.697Z,97.52
2018-12-09T07:25:31.667Z,98.14
2018-12-09T07:26:31.658Z,98.03
2018-12-09T07:27:31.657Z,97.63
2018-12-09T07:28:31.636Z,96.66
2018-12-09T07:29:31.642Z,95.36
2018-12-09T07:30:31.612Z,96.55
2018-12-09T07:31:31.603Z,96.55
2018-12-09T07:32:31.592Z,95.73
2018-12-09T07:33:31.577Z,95.93
2018-12-09T07:34:31.588Z,96.66
2018-12-09T07:35:31.555Z,94.49
2018-12-09T07:36:31.548Z,95.62
2018-12-09T07:37:31.530Z,95.62
2018-12-09T07:38:31.531Z,95.73
2018-12-09T07:39:31.524Z,95.42
2018-12-09T07:40:31.494Z,95.42
2018-12-09T07:41:32.164Z,95.42
2018-12-09T07:42:31.476Z,93.77
2018-12-09T07:43:31.474Z,94.55
2018-12-09T07:44:31.478Z,94.28
2018-12-09T07:45:31.453Z,93.93
2018-12-09T07:46:31.434Z,94.18
2018-12-09T07:47:31.420Z,94.18
2018-12-09T07:48:31.413Z,93.35
2018-12-09T07:49:31.424Z,93.87
2018-12-09T07:50:31.395Z,93.46
2018-12-09T07:51:31.382Z,94.18
2018-12-09T07:52:31.371Z,94.08
2018-12-09T07:53:31.361Z,94.70
2018-12-09T07:54:31.370Z,93.62
2018-12-09T07:55:31.333Z,94.08
2018-12-09T07:56:31.331Z,95.00
2018-12-09T07:57:31.312Z,94.45
2018-12-09T07:58:31.308Z,94.90
2018-12-09T07:59:31.316Z,94.34
2018-12-09T08:00:31.278Z,94.28
2018-12-09T08:01:31.270Z,95.00
2018-12-09T08:02:31.253Z,94.70
2018-12-09T08:03:31.247Z,94.49
2018-12-09T08:04:31.258Z,94.80
2018-12-09T08:05:31.222Z,94.08
2018-12-09T08:06:31.215Z,94.70
2018-12-09T08:07:31.201Z,95.06
2018-12-09T08:08:31.189Z,94.65
2018-12-09T08:09:31.199Z,95.31
2018-12-09T08:10:31.168Z,95.48
2018-12-09T08:11:31.158Z,95.06
2018-12-09T08:12:31.284Z,95.10
2018-12-09T08:13:31.134Z,95.31
2018-12-09T08:14:31.148Z,96.09
2018-12-09T08:15:31.109Z,95.99
2018-12-09T08:16:31.099Z,96.30
2018-12-09T08:17:31.085Z,97.06
2018-12-09T08:18:31.073Z,97.02
2018-12-09T08:19:31.071Z,95.58
2018-12-09T08:20:31.069Z,95.93
2018-12-09T08:21:31.042Z,96.03
2018-12-09T08:22:31.029Z,96.71
2018-12-09T08:23:31.041Z,96.20
2018-12-09T08:24:31.009Z,96.71
2018-12-09T08:25:31.016Z,96.75
2018-12-09T08:26:30.987Z,96.96
2018-12-09T08:27:30.972Z,96.14
2018-12-09T08:28:30.968Z,96.96
2018-12-09T08:29:30.956Z,96.45
2018-12-09T08:30:30.965Z,96.03
2018-12-09T08:31:30.952Z,96.41
2018-12-09T08:32:30.922Z,96.55
2018-12-09T08:33:30.936Z,96.55
2018-12-09T08:34:30.899Z,95.21
2018-12-09T08:35:30.918Z,95.99
2018-12-09T08:36:30.892Z,95.06
2018-12-09T08:37:30.867Z,94.59
2018-12-09T08:38:30.857Z,94.24
2018-12-09T08:39:30.857Z,94.24
2018-12-09T08:40:30.853Z,94.03
2018-12-09T08:41:30.820Z,94.34
2018-12-09T08:42:30.813Z,93.41
2018-12-09T08:43:30.802Z,92.59
2018-12-09T08:44:30.791Z,92.38
2018-12-09T08:45:30.796Z,92.80
2018-12-09T08:46:30.767Z,92.18
2018-12-09T08:47:30.754Z,92.18
2018-12-09T08:48:30.749Z,92.80
2018-12-09T08:49:30.735Z,91.97
2018-12-09T08:50:30.741Z,91.97
2018-12-09T08:51:30.711Z,91.36
2018-12-09T08:52:30.699Z,91.46
2018-12-09T08:53:30.691Z,91.36
2018-12-09T08:54:30.677Z,91.36
2018-12-09T08:55:30.680Z,90.80
2018-12-09T08:56:30.654Z,91.25
2018-12-09T08:57:30.646Z,90.53
2018-12-09T08:58:30.630Z,90.84
2018-12-09T08:59:30.618Z,90.43
2018-12-09T09:00:30.642Z,90.43
2018-12-09T09:01:30.603Z,90.64
2018-12-09T09:02:30.585Z,92.03
2018-12-09T09:03:30.577Z,91.68
2018-12-09T09:04:32.285Z,91.17
2018-12-09T09:05:30.577Z,91.47
2018-12-09T09:06:30.548Z,90.86
2018-12-09T09:07:30.533Z,91.38
2018-12-09T09:08:30.519Z,91.02
2018-12-09T09:09:30.509Z,88.76
2018-12-09T09:10:30.531Z,89.31
2018-12-09T09:11:30.485Z,91.17
2018-12-09T09:12:30.474Z,90.55
2018-12-09T09:13:30.469Z,89.62
2018-12-09T09:14:30.462Z,90.96
2018-12-09T09:15:30.443Z,89.62
2018-12-09T09:16:30.444Z,89.31
2018-12-09T09:17:30.421Z,89.01
2018-12-09T09:18:30.411Z,89.31
2018-12-09T09:19:30.403Z,88.66
2018-12-09T09:20:30.391Z,88.86
2018-12-09T09:21:30.403Z,87.77
2018-12-09T09:22:30.366Z,88.70
2018-12-09T09:23:30.354Z,88.18
2018-12-09T09:24:30.342Z,88.49
2018-12-09T09:25:30.336Z,88.96
2018-12-09T09:26:30.343Z,87.67
2018-12-09T09:27:30.308Z,87.63
2018-12-09T09:28:30.306Z,87.73
2018-12-09T09:29:30.287Z,86.29
2018-12-09T09:30:30.276Z,85.74
2018-12-09T09:31:30.281Z,87.52
2018-12-09T09:32:30.260Z,87.22
2018-12-09T09:33:30.243Z,85.33
2018-12-09T09:34:30.233Z,87.49
2018-12-09T09:35:30.219Z,86.56
2018-12-09T09:36:30.231Z,85.84
2018-12-09T09:37:30.199Z,86.05
2018-12-09T09:38:30.185Z,86.40
2018-12-09T09:39:30.174Z,87.57
2018-12-09T09:40:30.170Z,88.45
2018-12-09T09:41:30.179Z,86.40
2018-12-09T09:42:30.148Z,86.74
2018-12-09T09:43:30.143Z,86.91
2018-12-09T09:44:30.119Z,85.57
2018-12-09T09:45:30.108Z,85.06
2018-12-09T09:46:30.117Z,84.54
2018-12-09T09:47:30.085Z,84.23
2018-12-09T09:48:30.086Z,84.34
2018-12-09T09:49:30.063Z,84.85
2018-12-09T09:50:30.053Z,85.16
2018-12-09T09:51:30.058Z,84.13
2018-12-09T09:52:30.029Z,83.92
2018-12-09T09:53:30.024Z,84.50
2018-12-09T09:54:30.011Z,83.78
2018-12-09T09:55:30.007Z,84.20
2018-12-09T09:56:30.005Z,84.20
2018-12-09T09:57:30.049Z,84.23
2018-12-09T09:58:29.968Z,84.23
2018-12-09T09:59:29.954Z,84.03
2018-12-09T10:00:29.940Z,84.44
2018-12-09T10:01:29.963Z,84.44
2018-12-09T10:02:29.969Z,84.38
2018-12-09T10:03:29.908Z,84.95
2018-12-09T10:04:29.896Z,84.34
2018-12-09T10:05:29.887Z,84.34
2018-12-09T10:06:29.884Z,84.34
2018-12-09T10:07:29.877Z,85.06
2018-12-09T10:08:29.856Z,84.85
2018-12-09T10:09:29.844Z,84.34
2018-12-09T10:10:29.829Z,85.26
2018-12-09T10:11:29.824Z,84.75
2018-12-09T10:12:29.849Z,84.75
2018-12-09T10:13:29.915Z,84.54
2018-12-09T10:14:29.788Z,83.89
2018-12-09T10:15:29.864Z,84.09
2018-12-09T10:16:29.764Z,83.99
2018-12-09T10:17:29.791Z,83.44
2018-12-09T10:18:29.745Z,84.16
2018-12-09T10:19:29.736Z,83.54
2018-12-09T10:20:29.722Z,84.16
2018-12-09T10:21:29.711Z,83.13
2018-12-09T10:22:29.714Z,82.82
2018-12-09T10:23:29.686Z,83.13
2018-12-09T10:24:29.678Z,83.17
2018-12-09T10:25:29.667Z,83.06
2018-12-09T10:26:36.481Z,83.48
2018-12-09T10:27:30.654Z,82.96
2018-12-09T10:28:29.632Z,83.27
2018-12-09T10:29:29.622Z,83.95
2018-12-09T10:30:29.608Z,83.78
2018-12-09T10:31:29.601Z,83.64
2018-12-09T10:32:29.610Z,82.92
2018-12-09T10:33:29.572Z,82.82
2018-12-09T10:34:29.562Z,82.78
2018-12-09T10:35:29.547Z,82.06
2018-12-09T10:36:29.539Z,81.96
2018-12-09T10:37:29.550Z,80.83
2018-12-09T10:38:29.517Z,81.24
2018-12-09T10:39:29.511Z,82.37
2018-12-09T10:40:29.493Z,80.90
2018-12-09T10:41:29.481Z,82.13
2018-12-09T10:42:29.491Z,80.38
2018-12-09T10:43:29.461Z,80.18
2018-12-09T10:44:29.452Z,79.66
2018-12-09T10:45:29.441Z,78.94
2018-12-09T10:46:29.425Z,79.39
2018-12-09T10:47:29.448Z,79.60
2018-12-09T10:48:29.405Z,81.18
2018-12-09T10:49:29.393Z,80.63
2018-12-09T10:50:29.379Z,80.52
2018-12-09T10:51:29.371Z,80.42
2018-12-09T10:52:29.356Z,78.02
2018-12-09T10:53:29.474Z,78.12
2018-12-09T10:54:29.346Z,78.12
2018-12-09T10:55:29.339Z,78.27
2018-12-09T10:56:29.317Z,79.74
2018-12-09T10:57:29.379Z,80.56
2018-12-09T10:58:29.325Z,80.25
2018-12-09T10:59:29.356Z,80.66
2018-12-09T11:00:29.275Z,80.46
2018-12-09T11:01:29.264Z,81.28
2018-12-09T11:02:29.252Z,81.38
2018-12-09T11:03:29.259Z,80.46
2018-12-09T11:04:29.228Z,80.05
2018-12-09T11:05:29.217Z,81.01
2018-12-09T11:06:29.206Z,81.52
2018-12-09T11:07:29.196Z,81.32
2018-12-09T11:08:29.212Z,81.11
2018-12-09T11:09:29.179Z,81.32
2018-12-09T11:10:29.165Z,82.14
2018-12-09T11:11:29.147Z,82.55
2018-12-09T11:12:29.137Z,82.04
2018-12-09T11:13:29.143Z,81.11
2018-12-09T11:14:29.122Z,81.28
2018-12-09T11:15:29.101Z,80.91
2018-12-09T11:16:29.118Z,80.35
2018-12-09T11:17:29.090Z,80.29
2018-12-09T11:18:29.091Z,81.01
2018-12-09T11:19:29.070Z,81.32
2018-12-09T11:20:29.047Z,80.70
2018-12-09T11:21:30.790Z,81.32
2018-12-09T11:22:29.026Z,80.39
2018-12-09T11:23:29.041Z,80.80
2018-12-09T11:24:29.018Z,81.62
2018-12-09T11:25:28.993Z,80.70
2018-12-09T11:26:28.989Z,81.73
2018-12-09T11:27:28.970Z,80.91
2018-12-09T11:28:28.981Z,80.91
2018-12-09T11:29:28.965Z,79.57
2018-12-09T11:30:28.940Z,80.19
2018-12-09T11:31:28.925Z,79.98
2018-12-09T11:32:28.918Z,79.63
2018-12-09T11:33:28.903Z,79.74
2018-12-09T11:34:28.911Z,79.43
2018-12-09T11:35:28.882Z,79.94
2018-12-09T11:36:28.874Z,80.35
2018-12-09T11:37:28.869Z,79.63
2018-12-09T11:38:28.849Z,79.84
2018-12-09T11:39:28.958Z,79.53
2018-12-09T11:40:28.834Z,78.61
2018-12-09T11:41:28.824Z,78.78
2018-12-09T11:42:28.802Z,78.36
2018-12-09T11:43:28.806Z,77.78
2018-12-09T11:44:28.806Z,78.61
2018-12-09T11:45:28.777Z,78.40
2018-12-09T11:46:28.763Z,78.50
2018-12-09T11:47:28.761Z,78.09
2018-12-09T11:48:28.738Z,78.09
2018-12-09T11:49:28.752Z,78.30
2018-12-09T11:50:28.712Z,77.99
2018-12-09T11:51:28.715Z,78.54
2018-12-09T11:52:28.705Z,78.71
2018-12-09T11:53:28.688Z,78.81
2018-12-09T11:54:28.708Z,79.43
2018-12-09T11:55:28.661Z,78.50
2018-12-09T11:56:28.659Z,79.84
2018-12-09T11:57:28.638Z,78.75
2018-12-09T11:58:28.631Z,79.05
2018-12-09T11:59:28.616Z,79.88
2018-12-09T12:00:28.631Z,79.88
2018-12-09T12:01:28.603Z,79.77
2018-12-09T12:02:29.045Z,79.77
2018-12-09T12:03:28.596Z,80.74
2018-12-09T12:04:28.584Z,80.39
2018-12-09T12:05:28.550Z,80.33
2018-12-09T12:06:28.539Z,82.07
2018-12-09T12:07:28.528Z,80.84
2018-12-09T12:08:28.517Z,80.43
2018-12-09T12:09:28.524Z,81.67
2018-12-09T12:10:28.492Z,81.46
2018-12-09T12:11:28.480Z,81.05
2018-12-09T12:12:28.470Z,80.53
2018-12-09T12:13:28.464Z,80.74
2018-12-09T12:14:28.475Z,80.53
2018-12-09T12:15:28.460Z,80.22
2018-12-09T12:16:28.423Z,80.33
2018-12-09T12:17:28.416Z,80.84
2018-12-09T12:18:28.408Z,80.19
2018-12-09T12:19:28.424Z,79.57
2018-12-09T12:20:28.382Z,80.02
2018-12-09T12:21:28.369Z,79.71
2018-12-09T12:22:28.357Z,79.61
2018-12-09T12:23:28.361Z,79.44
2018-12-09T12:24:28.371Z,80.26
2018-12-09T12:25:28.331Z,81.15
2018-12-09T12:26:28.312Z,79.61
2018-12-09T12:27:28.305Z,79.81
2018-12-09T12:28:28.290Z,81.15
2018-12-09T12:29:28.304Z,79.81
2018-12-09T12:30:28.268Z,80.12
2018-12-09T12:31:28.268Z,80.33
2018-12-09T12:32:28.244Z,80.53
2018-12-09T12:33:28.239Z,79.71
2018-12-09T12:34:28.223Z,80.33
2018-12-09T12:35:28.242Z,80.53
2018-12-09T12:36:28.203Z,80.43
2018-12-09T12:37:28.199Z,80.02
2018-12-09T12:38:28.186Z,81.15
2018-12-09T12:39:28.188Z,80.63
2018-12-09T12:40:28.177Z,80.22
2018-12-09T12:41:28.154Z,80.63
2018-12-09T12:42:28.149Z,81.25
2018-12-09T12:43:28.123Z,81.15
2018-12-09T12:44:28.143Z,80.63
2018-12-09T12:45:28.135Z,81.05
2018-12-09T12:46:28.116Z,81.46
2018-12-09T12:47:28.085Z,81.56
2018-12-09T12:48:28.079Z,81.67
2018-12-09T12:49:28.064Z,80.63
2018-12-09T12:50:28.070Z,82.39
2018-12-09T12:51:28.043Z,80.63
2018-12-09T12:52:28.030Z,81.32